createdAt,value
2023-02-24T00:00:38.558Z,99966.13
2023-02-24T00:03:11.728Z,99967.81
2023-02-24T00:05:44.377Z,99961.03
2023-02-24T00:08:13.961Z,99953.41
2023-02-24T00:10:41.827Z,99925.81
2023-02-24T00:13:12.242Z,99961.25
2023-02-24T00:15:40.688Z,99952.59
2023-02-24T00:18:08.541Z,99941.94
2023-02-24T00:20:37.398Z,99889.34
2023-02-24T00:23:05.440Z,99945.00
2023-02-24T00:25:34.645Z,99943.22
2023-02-24T00:28:02.604Z,99898.47
2023-02-24T00:30:33.236Z,99923.16
2023-02-24T00:33:02.937Z,99887.03
2023-02-24T00:35:30.852Z,99865.13
2023-02-24T00:37:58.800Z,99911.78
2023-02-24T00:40:26.848Z,99901.47
2023-02-24T00:42:56.178Z,99849.25
2023-02-24T00:45:24.061Z,99900.69
2023-02-24T00:47:51.960Z,99891.19
2023-02-24T00:50:20.229Z,99893.66
2023-02-24T00:52:49.819Z,99883.38
2023-02-24T00:55:19.277Z,99822.81
2023-02-24T00:57:47.236Z,99882.06
2023-02-24T01:00:20.029Z,99869.91
2023-02-24T01:02:47.963Z,99881.44
2023-02-24T01:05:16.115Z,99876.44
2023-02-24T01:07:44.154Z,99873.94
2023-02-24T01:10:13.077Z,99763.22
2023-02-24T01:12:49.812Z,99771.22
2023-02-24T01:15:21.779Z,99844.94
2023-02-24T01:17:49.706Z,99854.16
2023-02-24T01:20:18.576Z,99862.84
2023-02-24T01:22:48.140Z,99850.84
2023-02-24T01:25:16.245Z,99844.19
2023-02-24T01:27:44.179Z,99850.31
2023-02-24T01:30:16.125Z,99849.34
2023-02-24T01:32:46.968Z,99815.72
2023-02-24T01:35:15.872Z,99846.66
2023-02-24T01:37:45.488Z,99743.97
2023-02-24T01:40:21.573Z,99838.06
2023-02-24T01:42:50.485Z,99839.03
2023-02-24T01:45:25.501Z,99828.81
2023-02-24T01:48:01.319Z,99824.53
2023-02-24T01:50:30.004Z,99822.84
2023-02-24T01:53:02.313Z,99794.56
2023-02-24T01:55:34.554Z,99823.75
2023-02-24T01:58:06.668Z,99814.97
2023-02-24T02:00:45.559Z,99814.06
2023-02-24T02:03:30.852Z,99805.38
2023-02-24T02:06:02.420Z,99729.19
2023-02-24T02:08:31.194Z,99795.00
2023-02-24T02:11:04.383Z,99799.34
2023-02-24T02:13:35.867Z,99796.69
2023-02-24T02:16:33.648Z,99800.06
2023-02-24T02:19:24.990Z,99763.09
2023-02-24T02:22:08.441Z,99781.06
2023-02-24T02:24:49.495Z,99776.72
2023-02-24T02:27:58.203Z,99727.91
2023-02-24T02:30:55.507Z,99771.47
2023-02-24T02:34:09.427Z,99737.19
2023-02-24T02:36:48.989Z,99761.09
2023-02-24T02:39:29.084Z,99756.75
2023-02-24T02:42:04.928Z,99766.16
2023-02-24T02:44:40.016Z,99761.19
2023-02-24T02:47:14.245Z,99756.03
2023-02-24T02:49:46.724Z,99735.75
2023-02-24T02:52:22.206Z,99748.31
2023-02-24T02:54:54.164Z,99745.00
2023-02-24T02:57:26.264Z,99747.66
2023-02-24T03:00:00.255Z,99739.28
2023-02-24T03:02:40.036Z,99736.81
2023-02-24T03:05:11.548Z,99730.91
2023-02-24T03:07:42.937Z,99727.47
2023-02-24T03:10:20.951Z,99669.44
2023-02-24T03:12:52.910Z,99732.63
2023-02-24T03:15:24.545Z,99674.19
2023-02-24T03:17:57.106Z,99729.06
2023-02-24T03:20:32.861Z,99723.03
2023-02-24T03:23:05.010Z,99719.50
2023-02-24T03:25:44.642Z,99705.25
2023-02-24T03:28:17.618Z,99693.72
2023-02-24T03:30:49.164Z,99693.97
2023-02-24T03:33:24.246Z,99708.22
2023-02-24T03:35:54.071Z,99706.53
2023-02-24T03:38:24.499Z,99702.19
2023-02-24T03:40:53.463Z,99702.44
2023-02-24T03:43:26.862Z,99694.78
2023-02-24T03:45:56.380Z,99673.38
2023-02-24T03:48:26.135Z,99684.97
2023-02-24T03:50:56.393Z,99682.97
2023-02-24T03:53:39.422Z,99693.34
2023-02-24T03:56:22.796Z,99689.06
2023-02-24T03:59:05.877Z,99695.09
2023-02-24T04:01:43.250Z,99701.13
2023-02-24T04:04:19.222Z,99686.41
2023-02-24T04:06:56.515Z,99683.69
2023-02-24T04:09:33.359Z,99677.56
2023-02-24T04:12:10.395Z,99678.44
2023-02-24T04:14:48.700Z,99633.47
2023-02-24T04:17:21.233Z,99665.72
2023-02-24T04:19:54.319Z,99682.06
2023-02-24T04:22:25.870Z,99602.91
2023-02-24T04:24:58.204Z,99670.88
2023-02-24T04:27:28.452Z,99526.84
2023-02-24T04:30:01.155Z,99669.19
2023-02-24T04:32:31.628Z,99658.88
2023-02-24T04:35:04.574Z,99654.63
2023-02-24T04:37:37.363Z,99662.44
2023-02-24T04:40:10.691Z,99625.44
2023-02-24T04:42:41.317Z,99454.13
2023-02-24T04:45:12.963Z,99579.59
2023-02-24T04:47:43.124Z,99644.47
2023-02-24T04:50:12.344Z,99633.72
2023-02-24T04:52:45.020Z,99655.81
2023-02-24T04:55:12.940Z,99651.47
2023-02-24T04:57:40.855Z,99645.53
2023-02-24T05:00:21.176Z,99632.66
2023-02-24T05:02:49.783Z,99588.34
2023-02-24T05:05:18.552Z,99639.66
2023-02-24T05:07:48.518Z,99640.59
2023-02-24T05:10:18.902Z,99638.75
2023-02-24T05:12:46.868Z,99620.09
2023-02-24T05:15:15.014Z,99631.69
2023-02-24T05:17:43.151Z,99633.53
2023-02-24T05:20:29.712Z,99631.91
2023-02-24T05:22:58.963Z,99628.47
2023-02-24T05:25:26.943Z,99627.56
2023-02-24T05:27:56.891Z,99573.78
2023-02-24T05:30:25.100Z,99573.69
2023-02-24T05:32:54.272Z,99621.69
2023-02-24T05:35:22.237Z,99620.72
2023-02-24T05:37:50.069Z,99613.00
2023-02-24T05:40:23.544Z,99597.25
2023-02-24T05:42:51.926Z,99607.78
2023-02-24T05:45:19.890Z,99611.22
2023-02-24T05:47:48.564Z,99602.47
2023-02-24T05:50:17.683Z,99601.59
2023-02-24T05:52:45.861Z,99597.16
2023-02-24T05:55:14.211Z,99599.59
2023-02-24T05:57:43.858Z,99604.66
2023-02-24T06:00:16.359Z,99612.31
2023-02-24T06:02:49.630Z,99516.88
2023-02-24T06:05:26.569Z,99586.66
2023-02-24T06:08:04.388Z,99512.84
2023-02-24T06:10:34.812Z,99518.22
2023-02-24T06:13:04.330Z,99591.78
2023-02-24T06:15:32.416Z,99590.16
2023-02-24T06:18:02.113Z,99587.50
2023-02-24T06:20:33.097Z,99583.25
2023-02-24T06:23:02.342Z,99583.25
2023-02-24T06:25:33.386Z,99571.19
2023-02-24T06:28:01.903Z,99579.72
2023-02-24T06:30:32.923Z,99571.03
2023-02-24T06:33:00.867Z,99566.69
2023-02-24T06:35:28.713Z,99569.25
2023-02-24T06:37:56.958Z,99573.75
2023-02-24T06:40:24.879Z,99541.44
2023-02-24T06:42:55.074Z,99548.81
2023-02-24T06:45:24.322Z,99565.19
2023-02-24T06:47:53.796Z,99563.34
2023-02-24T06:50:21.903Z,99563.25
2023-02-24T06:52:50.897Z,99569.38
2023-02-24T06:55:26.329Z,99570.34
2023-02-24T06:57:58.051Z,99552.72
2023-02-24T07:00:37.357Z,99428.22
2023-02-24T07:03:15.813Z,99563.56
2023-02-24T07:05:50.404Z,99564.59
2023-02-24T07:08:21.181Z,99568.22
2023-02-24T07:10:54.509Z,99559.59
2023-02-24T07:13:22.801Z,99553.56
2023-02-24T07:15:51.146Z,99560.50
2023-02-24T07:18:20.743Z,99561.44
2023-02-24T07:20:48.650Z,99537.97
2023-02-24T07:23:17.782Z,99547.91
2023-02-24T07:25:46.981Z,99545.41
2023-02-24T07:28:16.554Z,99533.91
2023-02-24T07:30:44.430Z,99550.03
2023-02-24T07:33:14.471Z,99543.25
2023-02-24T07:35:44.066Z,99533.53
2023-02-24T07:38:17.234Z,99525.78
2023-02-24T07:40:47.642Z,99542.66
2023-02-24T07:43:16.022Z,99536.63
2023-02-24T07:45:43.985Z,99533.16
2023-02-24T07:48:12.579Z,99538.31
2023-02-24T07:50:43.615Z,99533.22
2023-02-24T07:53:11.565Z,99536.75
2023-02-24T07:55:40.507Z,99484.81
2023-02-24T07:58:10.788Z,99419.63
2023-02-24T08:00:58.826Z,99531.91
2023-02-24T08:03:30.497Z,99533.09
2023-02-24T08:06:13.089Z,99521.88
2023-02-24T08:08:57.879Z,99534.25
2023-02-24T08:11:27.871Z,99529.09
2023-02-24T08:13:57.938Z,99447.88
2023-02-24T08:16:34.616Z,99514.97
2023-02-24T08:19:03.525Z,99507.16
2023-02-24T08:21:38.337Z,99529.47
2023-02-24T08:24:06.996Z,99533.88
2023-02-24T08:26:44.882Z,99521.88
2023-02-24T08:29:13.683Z,99527.75
2023-02-24T08:31:43.210Z,99514.00
2023-02-24T08:34:11.345Z,99510.75
2023-02-24T08:36:40.637Z,99511.69
2023-02-24T08:39:08.453Z,99493.22
2023-02-24T08:41:51.616Z,99507.50
2023-02-24T08:44:20.498Z,99485.63
2023-02-24T08:46:50.366Z,99469.06
2023-02-24T08:49:19.189Z,99506.16
2023-02-24T08:51:52.980Z,99484.44
2023-02-24T08:54:27.567Z,99419.97
2023-02-24T08:56:56.989Z,99500.25
2023-02-24T08:59:40.487Z,99498.56
2023-02-24T09:02:31.209Z,99493.47
2023-02-24T09:05:03.650Z,99475.28
2023-02-24T09:07:36.673Z,99488.66
2023-02-24T09:10:11.695Z,99488.66
2023-02-24T09:12:41.345Z,99485.25
2023-02-24T09:15:11.551Z,99474.94
2023-02-24T09:17:50.422Z,99464.28
2023-02-24T09:20:51.965Z,99480.25
2023-02-24T09:23:21.320Z,99477.66
2023-02-24T09:25:54.430Z,99479.44
2023-02-24T09:28:25.155Z,99467.94
2023-02-24T09:30:54.504Z,99466.53
2023-02-24T09:33:25.587Z,99454.38
2023-02-24T09:36:03.301Z,99476.66
2023-02-24T09:38:50.312Z,99470.13
2023-02-24T09:41:32.243Z,99459.81
2023-02-24T09:44:07.921Z,99455.53
2023-02-24T09:46:54.170Z,99420.50
2023-02-24T09:49:25.326Z,99468.28
2023-02-24T09:52:00.621Z,99468.97
2023-02-24T09:54:35.416Z,99454.78
2023-02-24T09:57:16.894Z,99443.31
2023-02-24T10:00:22.173Z,99466.50
2023-02-24T10:03:03.937Z,99458.84
2023-02-24T10:05:39.487Z,99469.34
2023-02-24T10:08:18.123Z,99361.44
2023-02-24T10:11:07.131Z,99463.91
2023-02-24T10:13:38.907Z,99464.03
2023-02-24T10:16:15.668Z,99460.63
2023-02-24T10:18:48.577Z,99445.75
2023-02-24T10:21:30.889Z,99456.41
2023-02-24T10:24:15.505Z,99463.47
2023-02-24T10:27:00.877Z,99442.97
2023-02-24T10:30:01.158Z,99455.34
2023-02-24T10:32:42.339Z,99454.25
2023-02-24T10:35:17.643Z,99450.72
2023-02-24T10:37:45.925Z,99439.06
2023-02-24T10:40:26.430Z,99429.63
2023-02-24T10:43:10.675Z,99397.88
2023-02-24T10:45:45.436Z,99421.75
2023-02-24T10:48:41.524Z,99441.34
2023-02-24T10:51:19.985Z,99420.44
2023-02-24T10:54:10.144Z,99431.22
2023-02-24T10:56:44.549Z,99432.41
2023-02-24T10:59:42.021Z,99358.78
2023-02-24T11:02:29.578Z,99398.41
2023-02-24T11:05:17.019Z,99396.88
2023-02-24T11:07:53.626Z,99394.53
2023-02-24T11:10:32.548Z,99391.13
2023-02-24T11:13:19.542Z,99411.66
2023-02-24T11:16:09.622Z,99413.59
2023-02-24T11:18:39.248Z,99370.78
2023-02-24T11:21:09.983Z,99411.75
2023-02-24T11:23:42.307Z,99398.13
2023-02-24T11:26:16.912Z,99374.59
2023-02-24T11:29:00.863Z,99396.09
2023-02-24T11:31:41.528Z,99345.19
2023-02-24T11:34:17.042Z,99399.81
2023-02-24T11:36:54.621Z,99390.41
2023-02-24T11:39:42.348Z,99370.47
2023-02-24T11:42:14.773Z,99390.75
2023-02-24T11:44:51.962Z,99390.91
2023-02-24T11:47:27.355Z,99360.63
2023-02-24T11:50:04.749Z,99345.59
2023-02-24T11:52:36.905Z,99356.34
2023-02-24T11:55:14.814Z,99377.63
2023-02-24T11:57:45.715Z,99388.91
2023-02-24T12:00:20.439Z,99248.22
2023-02-24T12:02:56.170Z,99355.75
2023-02-24T12:05:28.528Z,99366.38
2023-02-24T12:08:02.923Z,99343.69
2023-02-24T12:10:34.645Z,99344.72
2023-02-24T12:13:14.098Z,99318.47
2023-02-24T12:15:47.078Z,99358.19
2023-02-24T12:18:21.147Z,99358.22
2023-02-24T12:20:51.974Z,99359.22
2023-02-24T12:23:24.954Z,99338.31
2023-02-24T12:26:06.979Z,99339.13
2023-02-24T12:28:51.300Z,99295.03
2023-02-24T12:31:27.466Z,99345.91
2023-02-24T12:34:08.691Z,99351.13
2023-02-24T12:36:54.393Z,99339.75
2023-02-24T12:39:23.611Z,99350.19
2023-02-24T12:42:02.155Z,99328.22
2023-02-24T12:44:42.826Z,99285.13
2023-02-24T12:47:14.102Z,99347.38
2023-02-24T12:49:59.519Z,99344.63
2023-02-24T12:52:35.057Z,99344.41
2023-02-24T12:55:11.516Z,99164.69
2023-02-24T12:57:49.318Z,99342.41
2023-02-24T13:00:26.104Z,99338.91
2023-02-24T13:03:02.795Z,99238.19
2023-02-24T13:05:38.033Z,99324.47
2023-02-24T13:08:19.586Z,99347.25
2023-02-24T13:10:51.922Z,99352.31
2023-02-24T13:13:26.579Z,99342.56
2023-02-24T13:15:56.232Z,99338.13
2023-02-24T13:18:30.193Z,99338.88
2023-02-24T13:21:08.427Z,99335.06
2023-02-24T13:23:38.008Z,99316.63
2023-02-24T13:26:06.086Z,99323.56
2023-02-24T13:28:38.629Z,99347.06
2023-02-24T13:31:09.709Z,99209.75
2023-02-24T13:33:39.680Z,99293.91
2023-02-24T13:36:15.805Z,99169.72
2023-02-24T13:38:45.821Z,99350.59
2023-02-24T13:41:38.356Z,99359.03
2023-02-24T13:44:28.256Z,99345.13
2023-02-24T13:47:40.709Z,99345.88
2023-02-24T13:50:33.692Z,99350.94
2023-02-24T13:53:25.752Z,99348.09
2023-02-24T13:56:09.960Z,99340.94
2023-02-24T13:59:13.274Z,99345.97
2023-02-24T14:01:50.796Z,99338.81
2023-02-24T14:04:24.464Z,99344.69
2023-02-24T14:06:55.008Z,99348.91
2023-02-24T14:09:28.053Z,99346.13
2023-02-24T14:12:01.034Z,99345.94
2023-02-24T14:14:30.486Z,99346.63
2023-02-24T14:16:58.527Z,99350.84
2023-02-24T14:19:27.517Z,99349.91
2023-02-24T14:21:57.575Z,99337.81
2023-02-24T14:24:29.303Z,99348.97
2023-02-24T14:26:59.774Z,99314.47
2023-02-24T14:29:32.162Z,99299.50
2023-02-24T14:32:01.417Z,99355.91
2023-02-24T14:34:34.037Z,99358.47
2023-02-24T14:37:04.798Z,99335.69
2023-02-24T14:39:35.336Z,99355.66
2023-02-24T14:42:13.514Z,99360.88
2023-02-24T14:44:44.070Z,99366.78
2023-02-24T14:47:15.345Z,99358.97
2023-02-24T14:49:52.532Z,99358.03
2023-02-24T14:52:31.585Z,99355.53
2023-02-24T14:55:07.317Z,99340.59
2023-02-24T14:57:39.372Z,99340.47
2023-02-24T15:00:11.968Z,99334.09
2023-02-24T15:02:44.970Z,99358.91
2023-02-24T15:05:13.380Z,99336.69
2023-02-24T15:07:45.453Z,99362.38
2023-02-24T15:10:22.735Z,99321.16
2023-02-24T15:12:54.831Z,99359.88
2023-02-24T15:15:24.968Z,99300.88
2023-02-24T15:17:57.849Z,99354.63
2023-02-24T15:20:28.423Z,99351.94
2023-02-24T15:22:56.845Z,99358.72
2023-02-24T15:25:41.841Z,99358.72
2023-02-24T15:28:24.445Z,99350.16
2023-02-24T15:31:05.820Z,99355.34
2023-02-24T15:33:40.246Z,99357.03
2023-02-24T15:36:12.624Z,99361.25
2023-02-24T15:38:43.352Z,99359.47
2023-02-24T15:41:15.056Z,99364.66
2023-02-24T15:43:50.252Z,99280.16
2023-02-24T15:46:25.666Z,99191.78
2023-02-24T15:48:55.655Z,99314.34
2023-02-24T15:51:32.012Z,99365.28
2023-02-24T15:54:02.375Z,99362.63
2023-02-24T15:56:34.086Z,99361.75
2023-02-24T15:59:02.666Z,99355.56
2023-02-24T16:01:32.796Z,99357.28
2023-02-24T16:04:01.601Z,99296.50
2023-02-24T16:06:30.323Z,99338.56
2023-02-24T16:08:59.335Z,99347.13
2023-02-24T16:11:30.201Z,99366.44
2023-02-24T16:14:01.818Z,99351.25
2023-02-24T16:16:30.025Z,99349.50
2023-02-24T16:18:57.959Z,99353.03
2023-02-24T16:21:26.097Z,99317.00
2023-02-24T16:23:53.969Z,99307.44
2023-02-24T16:26:24.148Z,99362.78
2023-02-24T16:28:55.350Z,99338.78
2023-02-24T16:31:26.309Z,99372.97
2023-02-24T16:33:56.069Z,99358.06
2023-02-24T16:36:25.551Z,99370.19
2023-02-24T16:38:53.716Z,99333.16
2023-02-24T16:41:21.900Z,99369.25
2023-02-24T16:43:49.962Z,99374.28
2023-02-24T16:46:20.347Z,99335.63
2023-02-24T16:48:53.599Z,99373.34
2023-02-24T16:51:22.843Z,99336.22
2023-02-24T16:53:50.807Z,99379.38
2023-02-24T16:56:18.804Z,99381.06
2023-02-24T16:58:46.748Z,99381.81
2023-02-24T17:01:20.429Z,99379.25
2023-02-24T17:03:51.835Z,99344.91
2023-02-24T17:06:22.107Z,99378.16
2023-02-24T17:08:50.677Z,99317.31
2023-02-24T17:11:21.955Z,99344.22
2023-02-24T17:13:50.075Z,99349.72
2023-02-24T17:16:18.006Z,99378.84
2023-02-24T17:18:45.866Z,99381.41
2023-02-24T17:21:16.163Z,99377.63
2023-02-24T17:23:44.166Z,99372.59
2023-02-24T17:26:15.060Z,99349.06
2023-02-24T17:28:43.465Z,99356.91
2023-02-24T17:31:11.485Z,99382.38
2023-02-24T17:33:39.815Z,99313.44
2023-02-24T17:36:07.898Z,99378.97
2023-02-24T17:38:37.276Z,99358.75
2023-02-24T17:41:05.416Z,99359.69
2023-02-24T17:43:33.238Z,99392.81
2023-02-24T17:46:06.491Z,99385.69
2023-02-24T17:48:35.055Z,99388.06
2023-02-24T17:51:02.863Z,99371.16
2023-02-24T17:53:31.303Z,99370.16
2023-02-24T17:56:04.820Z,99395.66
2023-02-24T17:58:33.756Z,99394.72
2023-02-24T18:01:02.725Z,99313.41
2023-02-24T18:03:30.809Z,99371.50
2023-02-24T18:06:00.502Z,99397.91
2023-02-24T18:08:28.574Z,99390.31
2023-02-24T18:10:56.654Z,99399.81
2023-02-24T18:13:26.312Z,99399.72
2023-02-24T18:15:54.291Z,99403.00
2023-02-24T18:18:22.231Z,99410.50
2023-02-24T18:20:50.156Z,99400.06
2023-02-24T18:23:18.079Z,99398.31
2023-02-24T18:25:46.165Z,99405.16
2023-02-24T18:28:14.028Z,99399.94
2023-02-24T18:30:43.347Z,99408.47
2023-02-24T18:33:11.531Z,99401.63
2023-02-24T18:35:40.110Z,99395.44
2023-02-24T18:38:08.086Z,99390.69
2023-02-24T18:40:36.047Z,99405.19
2023-02-24T18:43:03.948Z,99410.13
2023-02-24T18:45:32.760Z,99415.16
2023-02-24T18:48:05.140Z,99415.88
2023-02-24T18:50:34.290Z,99417.53
2023-02-24T18:53:02.396Z,99421.81
2023-02-24T18:55:30.326Z,99426.19
2023-02-24T18:57:58.152Z,99423.69
2023-02-24T19:00:26.291Z,99425.44
2023-02-24T19:02:54.264Z,99392.31
2023-02-24T19:05:24.941Z,99430.47
2023-02-24T19:07:53.943Z,99431.31
2023-02-24T19:10:21.846Z,99434.63
2023-02-24T19:12:51.086Z,99418.66
2023-02-24T19:15:20.034Z,99365.34
2023-02-24T19:17:48.037Z,99443.81
2023-02-24T19:20:16.010Z,99446.31
2023-02-24T19:22:45.434Z,99367.47
2023-02-24T19:25:13.704Z,99451.25
2023-02-24T19:27:41.528Z,99445.22
2023-02-24T19:30:10.785Z,99451.25
2023-02-24T19:32:38.762Z,99449.50
2023-02-24T19:35:07.711Z,99354.00
2023-02-24T19:37:36.193Z,99449.41
2023-02-24T19:40:05.896Z,99450.22
2023-02-24T19:42:33.794Z,99451.84
2023-02-24T19:45:01.764Z,99453.47
2023-02-24T19:47:29.703Z,99454.22
2023-02-24T19:49:57.519Z,99376.44
2023-02-24T19:52:25.814Z,99425.06
2023-02-24T19:54:54.430Z,99443.75
2023-02-24T19:57:23.609Z,99435.66
2023-02-24T19:59:52.502Z,99422.13
2023-02-24T20:02:20.536Z,99455.16
2023-02-24T20:04:48.424Z,99454.78
2023-02-24T20:07:16.509Z,99455.69
2023-02-24T20:09:44.628Z,99457.38
2023-02-24T20:12:12.560Z,99464.13
2023-02-24T20:14:41.985Z,99458.91
2023-02-24T20:17:12.942Z,99464.94
2023-02-24T20:19:41.032Z,99455.38
2023-02-24T20:22:08.974Z,99458.75
2023-02-24T20:24:37.016Z,99457.88
2023-02-24T20:27:05.696Z,99465.44
2023-02-24T20:29:35.318Z,99464.34
2023-02-24T20:32:05.084Z,99460.75
2023-02-24T20:34:33.154Z,99459.78
2023-02-24T20:37:01.029Z,99471.75
2023-02-24T20:39:29.062Z,99469.03
2023-02-24T20:41:57.045Z,99471.53
2023-02-24T20:44:24.999Z,99469.84
2023-02-24T20:46:53.003Z,99456.66
2023-02-24T20:49:23.749Z,99478.53
2023-02-24T20:51:51.806Z,99466.16
2023-02-24T20:54:19.908Z,99486.09
2023-02-24T20:56:48.168Z,99486.91
2023-02-24T20:59:18.656Z,99489.47
2023-02-24T21:01:48.317Z,99470.03
2023-02-24T21:04:18.765Z,99458.16
2023-02-24T21:06:49.064Z,99488.13
2023-02-24T21:09:17.336Z,99466.69
2023-02-24T21:11:45.298Z,99472.81
2023-02-24T21:14:16.445Z,99498.28
2023-02-24T21:16:46.179Z,99233.09
2023-02-24T21:19:14.269Z,99445.91
2023-02-24T21:21:42.242Z,99503.34
2023-02-24T21:24:11.648Z,99504.16
2023-02-24T21:26:39.493Z,99499.00
2023-02-24T21:29:07.968Z,99509.28
2023-02-24T21:31:36.037Z,99495.16
2023-02-24T21:34:03.951Z,99506.50
2023-02-24T21:36:32.144Z,99500.38
2023-02-24T21:39:01.045Z,99508.09
2023-02-24T21:41:30.227Z,99501.19
2023-02-24T21:44:00.700Z,99486.16
2023-02-24T21:46:29.102Z,99498.38
2023-02-24T21:48:58.383Z,99292.63
2023-02-24T21:51:27.853Z,99499.09
2023-02-24T21:53:56.940Z,99500.78
2023-02-24T21:56:27.348Z,99486.09
2023-02-24T21:58:59.349Z,99489.38
2023-02-24T22:01:29.213Z,99490.69
2023-02-24T22:03:58.880Z,99476.59
2023-02-24T22:06:30.245Z,99486.41
2023-02-24T22:08:59.495Z,99476.38
2023-02-24T22:11:27.350Z,99490.50
2023-02-24T22:13:56.640Z,99490.50
2023-02-24T22:16:26.787Z,99496.38
2023-02-24T22:18:58.409Z,99443.19
2023-02-24T22:21:29.321Z,99319.59
2023-02-24T22:23:59.325Z,99434.84
2023-02-24T22:26:27.672Z,99481.19
2023-02-24T22:28:57.880Z,99490.34
2023-02-24T22:31:28.393Z,99498.00
2023-02-24T22:33:56.810Z,99498.88
2023-02-24T22:36:27.150Z,99498.72
2023-02-24T22:38:57.158Z,99503.06
2023-02-24T22:41:27.175Z,99502.09
2023-02-24T22:43:56.537Z,99504.41
2023-02-24T22:46:27.563Z,99506.75
2023-02-24T22:48:56.280Z,99481.44
2023-02-24T22:51:25.017Z,99500.00
2023-02-24T22:53:53.423Z,99481.28
2023-02-24T22:56:24.081Z,99492.59
2023-02-24T22:58:52.421Z,99480.16
2023-02-24T23:01:24.591Z,99511.72
2023-02-24T23:03:52.684Z,99513.25
2023-02-24T23:06:23.483Z,99516.38
2023-02-24T23:08:53.214Z,99509.31
2023-02-24T23:11:24.993Z,99516.84
2023-02-24T23:13:53.283Z,99504.31
2023-02-24T23:16:25.213Z,99505.13
2023-02-24T23:18:54.063Z,99512.34
2023-02-24T23:21:24.940Z,99517.50
2023-02-24T23:23:57.119Z,99514.13
2023-02-24T23:26:30.326Z,99515.88
2023-02-24T23:28:58.339Z,99502.63
2023-02-24T23:31:28.382Z,99522.00
2023-02-24T23:33:58.690Z,99516.94
2023-02-24T23:36:27.392Z,99516.06
2023-02-24T23:38:55.240Z,99510.19
2023-02-24T23:41:23.212Z,99485.59
2023-02-24T23:43:51.203Z,99518.72
2023-02-24T23:46:19.206Z,99515.25
2023-02-24T23:48:52.479Z,99515.16
2023-02-24T23:51:20.649Z,99488.00
2023-02-24T23:53:48.947Z,99524.75
2023-02-24T23:56:19.393Z,99413.41
2023-02-24T23:58:50.872Z,99524.50
